Time;durP1;ratioP1;P1;durP2;ratioP2;P2;SDS_P1;SDS_P2;PMS_P1;PMS_P2;Temp;Humidity;BMP_temperature;BMP_pressure;BME280_temperature;BME280_humidity;BME280_pressure;Samples;Min_cycle;Max_cycle;Signal;HPM_P1;HPM_P2
2021/01/09 00:01:51;;;;;;;;;;;;;;;;;;5055640;28;20383;-84
2021/01/09 00:04:18;;;;;;;;;;;;;;;;;;5065355;28;20412;-84
2021/01/09 00:06:45;;;;;;;;;;;;;;;;;;5063350;28;20479;-83
2021/01/09 00:09:11;;;;;;;;;;;;;;;;;;5056649;28;20478;-83
2021/01/09 00:11:38;;;;;;;;;;;;;;;;;;5059563;28;20388;-83
2021/01/09 00:14:04;;;;;;;;;;;;;;;;;;5057722;28;20396;-83
2021/01/09 00:16:31;;;;;;;;;;;;;;;;;;5055025;28;20384;-84
2021/01/09 00:18:57;;;;;;;;;;;;;;;;;;5058194;28;20376;-83
2021/01/09 00:21:24;;;;;;;;;;;;;;;;;;5057447;28;20509;-83
2021/01/09 00:23:50;;;;;;;;;;;;;;;;;;5054836;28;20408;-83
2021/01/09 00:26:16;;;;;;;;;;;;;;;;;;5056685;28;20392;-83
2021/01/09 00:28:43;;;;;;;;;;;;;;;;;;5057239;28;20833;-83
2021/01/09 00:31:09;;;;;;;;;;;;;;;;;;5057401;28;20449;-84
2021/01/09 00:33:36;;;;;;;;;;;;;;;;;;5057353;28;20411;-83
2021/01/09 00:36:02;;;;;;;;;;;;;;;;;;5056393;28;20392;-83
2021/01/09 00:38:29;;;;;;;;;;;;;;;;;;5057359;28;20376;-83
2021/01/09 00:40:55;;;;;;;;;;;;;;;;;;5064491;28;20380;-82
2021/01/09 00:43:21;;;;;;;;;;;;;;;;;;5058478;28;20404;-83
2021/01/09 00:45:49;;;;;;;;;;;;;;;;;;5059957;28;20387;-83
2021/01/09 00:48:15;;;;;;;;;;;;;;;;;;5073678;28;20408;-84
2021/01/09 00:50:42;;;;;;;;;;;;;;;;;;5064139;28;20384;-84
2021/01/09 00:53:08;;;;;;;;;;;;;;;;;;5068621;28;20388;-84
2021/01/09 00:55:34;;;;;;;;;;;;;;;;;;5065320;28;20391;-84
2021/01/09 00:58:01;;;;;;;;;;;;;;;;;;5058816;28;20413;-84
2021/01/09 01:00:27;;;;;;;;;;;;;;;;;;5062865;28;20434;-84
2021/01/09 01:02:53;;;;;;;;;;;;;;;;;;5063901;28;20380;-84
2021/01/09 01:05:20;;;;;;;;;;;;;;;;;;5063052;28;20408;-84
2021/01/09 01:07:46;;;;;;;;;;;;;;;;;;5062803;28;20451;-84
2021/01/09 01:10:13;;;;;;;;;;;;;;;;;;5074306;28;20480;-84
2021/01/09 01:12:40;;;;;;;;;;;;;;;;;;5062416;28;20391;-83
2021/01/09 01:15:06;;;;;;;;;;;;;;;;;;5068119;28;20401;-83
2021/01/09 01:17:33;;;;;;;;;;;;;;;;;;5071857;28;20391;-84
2021/01/09 01:19:59;;;;;;;;;;;;;;;;;;5057614;28;20393;-83
2021/01/09 01:22:25;;;;;;;;;;;;;;;;;;5057724;28;20841;-84
2021/01/09 01:24:52;;;;;;;;;;;;;;;;;;5066590;28;20419;-84
2021/01/09 01:27:18;;;;;;;;;;;;;;;;;;5063694;28;20380;-84
2021/01/09 01:29:45;;;;;;;;;;;;;;;;;;5077127;28;20379;-84
2021/01/09 01:32:11;;;;;;;;;;;;;;;;;;5067158;28;20384;-84
2021/01/09 01:34:37;;;;;;;;;;;;;;;;;;5074534;28;20392;-84
2021/01/09 01:37:04;;;;;;;;;;;;;;;;;;5063510;28;20388;-84
2021/01/09 01:39:30;;;;;;;;;;;;;;;;;;5066804;28;20388;-85
2021/01/09 01:41:57;;;;;;;;;;;;;;;;;;5065399;28;20783;-84
2021/01/09 01:44:23;;;;;;;;;;;;;;;;;;5070632;28;20408;-84
2021/01/09 01:46:50;;;;;;;;;;;;;;;;;;5070186;28;20380;-84
2021/01/09 01:49:16;;;;;;;;;;;;;;;;;;5066393;28;20381;-84
2021/01/09 01:51:43;;;;;;;;;;;;;;;;;;5057458;28;20395;-84
2021/01/09 01:54:10;;;;;;;;;;;;;;;;;;5055535;28;20445;-84
2021/01/09 01:56:36;;;;;;;;;;;;;;;;;;5061427;28;20418;-84
2021/01/09 01:59:03;;;;;;;;;;;;;;;;;;5062284;28;20471;-84
2021/01/09 02:01:29;;;;;;;;;;;;;;;;;;5071973;28;20466;-84
2021/01/09 02:03:56;;;;;;;;;;;;;;;;;;5073965;28;20408;-84
2021/01/09 02:06:22;;;;;;;;;;;;;;;;;;5061469;28;20446;-84
2021/01/09 02:08:48;;;;;;;;;;;;;;;;;;5060967;28;20387;-84
2021/01/09 02:11:15;;;;;;;;;;;;;;;;;;5061019;28;20392;-84
2021/01/09 02:13:41;;;;;;;;;;;;;;;;;;5066841;28;20430;-84
2021/01/09 02:16:07;;;;;;;;;;;;;;;;;;5058473;28;20410;-84
2021/01/09 02:18:34;;;;;;;;;;;;;;;;;;5056594;28;20384;-84
2021/01/09 02:21:00;;;;;;;;;;;;;;;;;;5057174;28;20380;-84
2021/01/09 02:23:26;;;;;;;;;;;;;;;;;;5055230;28;20380;-84
2021/01/09 02:25:53;;;;;;;;;;;;;;;;;;5056140;28;20407;-84
2021/01/09 02:28:19;;;;;;;;;;;;;;;;;;5056615;28;20396;-83
2021/01/09 02:30:47;;;;;;;;;;;;;;;;;;5056676;28;20430;-83
2021/01/09 02:33:14;;;;;;;;;;;;;;;;;;5057351;28;20380;-83
2021/01/09 02:35:40;;;;;;;;;;;;;;;;;;5057753;28;20384;-83
2021/01/09 02:38:06;;;;;;;;;;;;;;;;;;5056669;28;20380;-83
2021/01/09 02:40:33;;;;;;;;;;;;;;;;;;5057287;28;20377;-83
2021/01/09 02:42:59;;;;;;;;;;;;;;;;;;5056074;28;20380;-83
2021/01/09 02:45:26;;;;;;;;;;;;;;;;;;5056310;28;20869;-83
2021/01/09 02:47:52;;;;;;;;;;;;;;;;;;5072457;28;20368;-83
2021/01/09 02:50:18;;;;;;;;;;;;;;;;;;5062652;28;20388;-83
2021/01/09 02:52:45;;;;;;;;;;;;;;;;;;5059341;28;20399;-83
2021/01/09 02:55:11;;;;;;;;;;;;;;;;;;5060931;28;20407;-83
2021/01/09 02:57:37;;;;;;;;;;;;;;;;;;5065840;28;20441;-83
2021/01/09 03:00:04;;;;;;;;;;;;;;;;;;5066782;28;20372;-83
2021/01/09 03:02:30;;;;;;;;;;;;;;;;;;5063248;28;20414;-83
2021/01/09 03:04:56;;;;;;;;;;;;;;;;;;5058741;28;20400;-83
2021/01/09 03:07:23;;;;;;;;;;;;;;;;;;5059492;28;20407;-83
2021/01/09 03:09:49;;;;;;;;;;;;;;;;;;5059399;28;20442;-83
2021/01/09 03:12:16;;;;;;;;;;;;;;;;;;5060112;28;20384;-83
2021/01/09 03:14:42;;;;;;;;;;;;;;;;;;5057585;28;20400;-82
2021/01/09 03:17:08;;;;;;;;;;;;;;;;;;5058600;28;20380;-83
2021/01/09 03:19:35;;;;;;;;;;;;;;;;;;5057993;28;20852;-83
2021/01/09 03:22:01;;;;;;;;;;;;;;;;;;5058792;28;20391;-83
2021/01/09 03:24:27;;;;;;;;;;;;;;;;;;5059170;28;20400;-82
2021/01/09 03:26:54;;;;;;;;;;;;;;;;;;5058406;28;20384;-83
2021/01/09 03:29:20;;;;;;;;;;;;;;;;;;5058766;28;20392;-83
2021/01/09 03:31:46;;;;;;;;;;;;;;;;;;5058404;28;20384;-83
2021/01/09 03:34:13;;;;;;;;;;;;;;;;;;5059034;28;20453;-83
2021/01/09 03:36:39;;;;;;;;;;;;;;;;;;5057818;28;20422;-83
2021/01/09 03:39:06;;;;;;;;;;;;;;;;;;5058017;28;20388;-82
2021/01/09 03:41:32;;;;;;;;;;;;;;;;;;5059141;28;20888;-83
2021/01/09 03:43:58;;;;;;;;;;;;;;;;;;5045478;28;20462;-83
2021/01/09 03:46:25;;;;;;;;;;;;;;;;;;5058733;28;20380;-83
2021/01/09 03:48:51;;;;;;;;;;;;;;;;;;5058360;28;20395;-83
2021/01/09 03:51:17;;;;;;;;;;;;;;;;;;5048461;28;20403;-83
2021/01/09 03:53:44;;;;;;;;;;;;;;;;;;5059004;28;20741;-83
2021/01/09 03:56:10;;;;;;;;;;;;;;;;;;5058520;28;20429;-83
2021/01/09 03:58:37;;;;;;;;;;;;;;;;;;5060159;28;20387;-83
2021/01/09 04:01:03;;;;;;;;;;;;;;;;;;5049507;28;20769;-83
2021/01/09 04:03:29;;;;;;;;;;;;;;;;;;5057974;28;20404;-83
2021/01/09 04:05:56;;;;;;;;;;;;;;;;;;5058076;28;20400;-83
2021/01/09 04:08:22;;;;;;;;;;;;;;;;;;5059222;28;20388;-83
2021/01/09 04:10:48;;;;;;;;;;;;;;;;;;5059797;28;20799;-82
2021/01/09 04:13:15;;;;;;;;;;;;;;;;;;5070183;28;20396;-82
2021/01/09 04:15:41;;;;;;;;;;;;;;;;;;5068529;28;20411;-81
2021/01/09 04:18:07;;;;;;;;;;;;;;;;;;5063107;28;20391;-83
2021/01/09 04:20:34;;;;;;;;;;;;;;;;;;5058309;28;20376;-83
2021/01/09 04:23:00;;;;;;;;;;;;;;;;;;5058386;28;20384;-82
2021/01/09 04:25:27;;;;;;;;;;;;;;;;;;5057847;28;20768;-83
2021/01/09 04:27:53;;;;;;;;;;;;;;;;;;5062162;28;20395;-82
2021/01/09 04:30:19;;;;;;;;;;;;;;;;;;5075728;28;20395;-82
2021/01/09 04:32:46;;;;;;;;;;;;;;;;;;5062493;28;20432;-83
2021/01/09 04:35:12;;;;;;;;;;;;;;;;;;5059583;28;20392;-82
2021/01/09 04:37:38;;;;;;;;;;;;;;;;;;5059332;28;20388;-83
2021/01/09 04:40:05;;;;;;;;;;;;;;;;;;5058268;28;20376;-82
2021/01/09 04:42:31;;;;;;;;;;;;;;;;;;5059166;28;20391;-82
2021/01/09 04:44:58;;;;;;;;;;;;;;;;;;5059344;28;20453;-82
2021/01/09 04:47:24;;;;;;;;;;;;;;;;;;5072300;28;20395;-83
2021/01/09 04:49:51;;;;;;;;;;;;;;;;;;5062158;28;20395;-82
2021/01/09 04:52:17;;;;;;;;;;;;;;;;;;5062754;28;20453;-82
2021/01/09 04:54:43;;;;;;;;;;;;;;;;;;5052426;28;20461;-83
2021/01/09 04:57:10;;;;;;;;;;;;;;;;;;5062357;28;20395;-83
2021/01/09 04:59:36;;;;;;;;;;;;;;;;;;5062053;28;20399;-82
2021/01/09 05:02:02;;;;;;;;;;;;;;;;;;5061853;28;20407;-83
2021/01/09 05:04:29;;;;;;;;;;;;;;;;;;5061811;28;20408;-83
2021/01/09 05:06:55;;;;;;;;;;;;;;;;;;5062106;28;20470;-83
2021/01/09 05:09:22;;;;;;;;;;;;;;;;;;5061729;28;20900;-83
2021/01/09 05:11:48;;;;;;;;;;;;;;;;;;5062167;28;20387;-82
2021/01/09 05:14:15;;;;;;;;;;;;;;;;;;5061713;28;20483;-82
2021/01/09 05:16:41;;;;;;;;;;;;;;;;;;5061333;28;20385;-83
2021/01/09 05:19:07;;;;;;;;;;;;;;;;;;5061400;28;20418;-82
2021/01/09 05:21:34;;;;;;;;;;;;;;;;;;5061772;28;20399;-82
2021/01/09 05:24:00;;;;;;;;;;;;;;;;;;5061099;28;20454;-83
2021/01/09 05:26:26;;;;;;;;;;;;;;;;;;5062154;28;20404;-83
2021/01/09 05:28:53;;;;;;;;;;;;;;;;;;5060838;28;20388;-82
2021/01/09 05:31:20;;;;;;;;;;;;;;;;;;5061508;28;20848;-83
2021/01/09 05:33:46;;;;;;;;;;;;;;;;;;5061328;28;20404;-83
2021/01/09 05:36:12;;;;;;;;;;;;;;;;;;5061630;28;20747;-83
2021/01/09 05:38:39;;;;;;;;;;;;;;;;;;5061298;28;20388;-83
2021/01/09 05:41:05;;;;;;;;;;;;;;;;;;5062726;28;20740;-83
2021/01/09 05:43:31;;;;;;;;;;;;;;;;;;5062194;28;20412;-83
2021/01/09 05:45:58;;;;;;;;;;;;;;;;;;5063221;28;20400;-82
2021/01/09 05:48:24;;;;;;;;;;;;;;;;;;5073229;28;20380;-83
2021/01/09 05:50:51;;;;;;;;;;;;;;;;;;5075105;28;20419;-82
2021/01/09 05:53:17;;;;;;;;;;;;;;;;;;5077158;28;20384;-82
2021/01/09 05:55:43;;;;;;;;;;;;;;;;;;5076926;28;20403;-82
2021/01/09 05:58:10;;;;;;;;;;;;;;;;;;5062495;28;20380;-83
2021/01/09 06:00:36;;;;;;;;;;;;;;;;;;5061140;28;20376;-83
2021/01/09 06:03:02;;;;;;;;;;;;;;;;;;5061194;28;20388;-82
2021/01/09 06:05:29;;;;;;;;;;;;;;;;;;5061801;28;20412;-83
2021/01/09 06:07:55;;;;;;;;;;;;;;;;;;5061615;28;20384;-83
2021/01/09 06:10:21;;;;;;;;;;;;;;;;;;5063117;28;20392;-82
2021/01/09 06:12:48;;;;;;;;;;;;;;;;;;5063305;28;20783;-83
2021/01/09 06:15:14;;;;;;;;;;;;;;;;;;5065031;28;20405;-83
2021/01/09 06:17:40;;;;;;;;;;;;;;;;;;5074940;28;20372;-82
2021/01/09 06:20:07;;;;;;;;;;;;;;;;;;5077794;28;20391;-82
2021/01/09 06:22:33;;;;;;;;;;;;;;;;;;5075833;28;20370;-81
2021/01/09 06:25:00;;;;;;;;;;;;;;;;;;5071630;28;20454;-82
2021/01/09 06:27:26;;;;;;;;;;;;;;;;;;5073625;28;20389;-82
2021/01/09 06:29:52;;;;;;;;;;;;;;;;;;5065408;28;20380;-82
2021/01/09 06:32:19;;;;;;;;;;;;;;;;;;5058345;28;20662;-82
2021/01/09 06:34:45;;;;;;;;;;;;;;;;;;5057399;28;20970;-82
2021/01/09 06:37:12;;;;;;;;;;;;;;;;;;5057428;28;20388;-81
2021/01/09 06:39:38;;;;;;;;;;;;;;;;;;5057093;28;20744;-82
2021/01/09 06:42:04;;;;;;;;;;;;;;;;;;5057455;28;20380;-82
2021/01/09 06:44:31;;;;;;;;;;;;;;;;;;5055796;28;20416;-82
2021/01/09 06:46:57;;;;;;;;;;;;;;;;;;5074439;28;20402;-81
2021/01/09 06:49:25;;;;;;;;;;;;;;;;;;5065661;28;20388;-82
2021/01/09 06:51:52;;;;;;;;;;;;;;;;;;5062613;28;20384;-82
2021/01/09 06:54:18;;;;;;;;;;;;;;;;;;5058935;28;20625;-83
2021/01/09 06:56:44;;;;;;;;;;;;;;;;;;5059165;28;20377;-83
2021/01/09 06:59:11;;;;;;;;;;;;;;;;;;5058774;28;20380;-83
2021/01/09 07:01:37;;;;;;;;;;;;;;;;;;5058198;28;20384;-83
2021/01/09 07:04:04;;;;;;;;;;;;;;;;;;5057258;28;20400;-83
2021/01/09 07:06:30;;;;;;;;;;;;;;;;;;5057828;28;20404;-82
2021/01/09 07:08:56;;;;;;;;;;;;;;;;;;5057945;28;20384;-83
2021/01/09 07:11:23;;;;;;;;;;;;;;;;;;5058207;28;20446;-83
2021/01/09 07:13:49;;;;;;;;;;;;;;;;;;5058004;28;20404;-83
2021/01/09 07:16:15;;;;;;;;;;;;;;;;;;5058644;28;20387;-83
2021/01/09 07:18:42;;;;;;;;;;;;;;;;;;5058162;28;20407;-83
2021/01/09 07:21:08;;;;;;;;;;;;;;;;;;5057594;28;20950;-83
2021/01/09 07:23:35;;;;;;;;;;;;;;;;;;5058178;28;20403;-83
2021/01/09 07:26:01;;;;;;;;;;;;;;;;;;5058464;28;20424;-83
2021/01/09 07:28:27;;;;;;;;;;;;;;;;;;5058110;28;20844;-83
2021/01/09 07:30:54;;;;;;;;;;;;;;;;;;5058888;28;20442;-83
2021/01/09 07:33:20;;;;;;;;;;;;;;;;;;5059488;28;20391;-83
2021/01/09 07:35:46;;;;;;;;;;;;;;;;;;5059282;28;20433;-83
2021/01/09 07:38:13;;;;;;;;;;;;;;;;;;5067200;28;20376;-83
2021/01/09 07:40:39;;;;;;;;;;;;;;;;;;5069044;28;20380;-82
2021/01/09 07:43:05;;;;;;;;;;;;;;;;;;5065930;28;20384;-84
2021/01/09 07:45:32;;;;;;;;;;;;;;;;;;5058875;28;20853;-83
2021/01/09 07:47:58;;;;;;;;;;;;;;;;;;5058890;28;20379;-83
2021/01/09 07:50:24;;;;;;;;;;;;;;;;;;5057688;28;20388;-83
2021/01/09 07:52:51;;;;;;;;;;;;;;;;;;5057226;28;20387;-83
2021/01/09 07:55:18;;;;;;;;;;;;;;;;;;5056499;28;20777;-83
2021/01/09 07:57:44;;;;;;;;;;;;;;;;;;5057955;28;20383;-83
2021/01/09 08:00:10;;;;;;;;;;;;;;;;;;5058762;28;20376;-83
2021/01/09 08:02:37;;;;;;;;;;;;;;;;;;5059838;28;20376;-84
2021/01/09 08:05:03;;;;;;;;;;;;;;;;;;5061978;28;20868;-83
2021/01/09 08:07:29;;;;;;;;;;;;;;;;;;5061049;28;20380;-84
2021/01/09 08:09:56;;;;;;;;;;;;;;;;;;5064817;28;20379;-84
2021/01/09 08:12:22;;;;;;;;;;;;;;;;;;5059258;28;20737;-83
2021/01/09 08:14:49;;;;;;;;;;;;;;;;;;5059700;28;20400;-84
2021/01/09 08:17:15;;;;;;;;;;;;;;;;;;5059838;28;20388;-85
2021/01/09 08:19:41;;;;;;;;;;;;;;;;;;5060157;28;20803;-85
2021/01/09 08:22:08;;;;;;;;;;;;;;;;;;5060830;28;20383;-85
2021/01/09 08:24:34;;;;;;;;;;;;;;;;;;5060220;28;20411;-85
2021/01/09 08:27:00;;;;;;;;;;;;;;;;;;5062123;28;20382;-85
2021/01/09 08:29:27;;;;;;;;;;;;;;;;;;5060431;28;20414;-84
2021/01/09 08:31:53;;;;;;;;;;;;;;;;;;5060104;28;20387;-84
2021/01/09 08:34:19;;;;;;;;;;;;;;;;;;5059195;28;20407;-84
2021/01/09 08:36:46;;;;;;;;;;;;;;;;;;5060829;28;20433;-85
2021/01/09 08:39:12;;;;;;;;;;;;;;;;;;5059766;28;20387;-86
2021/01/09 08:41:39;;;;;;;;;;;;;;;;;;5060045;28;20388;-85
2021/01/09 08:44:05;;;;;;;;;;;;;;;;;;5063335;28;20403;-85
2021/01/09 08:46:31;;;;;;;;;;;;;;;;;;5076549;28;20407;-85
2021/01/09 08:48:58;;;;;;;;;;;;;;;;;;5062156;28;20391;-85
2021/01/09 08:51:24;;;;;;;;;;;;;;;;;;5061696;28;20844;-85
2021/01/09 08:53:50;;;;;;;;;;;;;;;;;;5061446;28;20400;-84
2021/01/09 08:56:17;;;;;;;;;;;;;;;;;;5061067;28;20501;-84
2021/01/09 08:58:43;;;;;;;;;;;;;;;;;;5060714;28;20411;-85
2021/01/09 09:01:11;;;;;;;;;;;;;;;;;;5061150;28;20399;-84
2021/01/09 09:03:37;;;;;;;;;;;;;;;;;;5061096;28;20410;-85
2021/01/09 09:06:03;;;;;;;;;;;;;;;;;;5061573;28;20403;-85
2021/01/09 09:08:30;;;;;;;;;;;;;;;;;;5062686;28;21113;-84
2021/01/09 09:10:56;;;;;;;;;;;;;;;;;;5069147;28;20383;-83
2021/01/09 09:13:23;;;;;;;;;;;;;;;;;;5060159;28;20380;-85
2021/01/09 09:15:49;;;;;;;;;;;;;;;;;;5062069;28;20372;-85
2021/01/09 09:18:16;;;;;;;;;;;;;;;;;;5061632;28;20395;-84
2021/01/09 09:20:42;;;;;;;;;;;;;;;;;;5067390;28;20369;-86
2021/01/09 09:23:08;;;;;;;;;;;;;;;;;;5066197;28;20388;-88
2021/01/09 09:25:35;;;;;;;;;;;;;;;;;;5067899;28;20411;-87
2021/01/09 09:28:01;;;;;;;;;;;;;;;;;;5074923;28;20380;-87
2021/01/09 09:30:28;;;;;;;;;;;;;;;;;;5065006;28;20398;-86
2021/01/09 09:32:55;;;;;;;;;;;;;;;;;;5064473;28;20408;-85
2021/01/09 09:35:21;;;;;;;;;;;;;;;;;;5071325;28;20396;-83
2021/01/09 09:37:48;;;;;;;;;;;;;;;;;;5068829;28;20368;-85
2021/01/09 09:40:14;;;;;;;;;;;;;;;;;;5064404;28;20368;-86
2021/01/09 09:42:40;;;;;;;;;;;;;;;;;;5062493;28;20388;-86
2021/01/09 09:45:07;;;;;;;;;;;;;;;;;;5062236;28;20407;-85
2021/01/09 09:47:34;;;;;;;;;;;;;;;;;;5063455;28;20396;-87
2021/01/09 09:50:00;;;;;;;;;;;;;;;;;;5061116;28;20387;-85
2021/01/09 09:52:26;;;;;;;;;;;;;;;;;;5060383;28;20380;-87
2021/01/09 09:54:53;;;;;;;;;;;;;;;;;;5062182;28;20445;-88
2021/01/09 09:57:19;;;;;;;;;;;;;;;;;;5061715;28;20391;-85
2021/01/09 09:59:46;;;;;;;;;;;;;;;;;;5060232;28;20388;-83
2021/01/09 10:02:12;;;;;;;;;;;;;;;;;;5060036;28;20384;-84
2021/01/09 10:04:38;;;;;;;;;;;;;;;;;;5059702;28;20411;-85
2021/01/09 10:07:05;;;;;;;;;;;;;;;;;;5059661;28;20437;-84
2021/01/09 10:09:31;;;;;;;;;;;;;;;;;;5059676;28;20384;-84
2021/01/09 10:11:58;;;;;;;;;;;;;;;;;;5059300;28;20387;-87
2021/01/09 10:14:24;;;;;;;;;;;;;;;;;;5059999;28;20396;-85
2021/01/09 10:16:50;;;;;;;;;;;;;;;;;;5061151;28;20434;-85
2021/01/09 10:19:18;;;;;;;;;;;;;;;;;;5059971;28;20387;-83
2021/01/09 10:21:44;;;;;;;;;;;;;;;;;;5061223;28;20479;-87
2021/01/09 10:24:11;;;;;;;;;;;;;;;;;;5062079;28;20432;-87
2021/01/09 10:26:38;;;;;;;;;;;;;;;;;;5060747;28;20404;-84
2021/01/09 10:29:04;;;;;;;;;;;;;;;;;;5062200;28;20384;-85
2021/01/09 10:31:30;;;;;;;;;;;;;;;;;;5061948;28;20396;-84
2021/01/09 10:33:57;;;;;;;;;;;;;;;;;;5061548;28;20872;-83
2021/01/09 10:36:23;;;;;;;;;;;;;;;;;;5060450;28;20391;-83
2021/01/09 10:38:50;;;;;;;;;;;;;;;;;;5058931;28;20439;-85
2021/01/09 10:46:48;;;;;;;;;;;;;;;;;;5024501;28;20416;-87
2021/01/09 10:54:43;;;;;;;;;;;;;;;;;;5018707;28;20515;-87
2021/01/09 11:02:41;;;;;;;;;;;;;;;;;;5017600;28;20361;-86
2021/01/09 11:08:13;;;;;;;;;;;;;;;;;;5024428;28;20384;-87
2021/01/09 11:10:39;;;;;;;;;;;;;;;;;;5021555;28;20393;-87
2021/01/09 11:13:05;;;;;;;;;;;;;;;;;;5019262;28;20834;-86
2021/01/09 11:15:32;;;;;;;;;;;;;;;;;;5017209;28;20416;-84
2021/01/09 11:18:11;;;;;;;;;;;;;;;;;;5027067;28;20393;-86
2021/01/09 11:20:38;;;;;;;;;;;;;;;;;;5011248;28;20407;-86
2021/01/09 11:23:07;;;;;;;;;;;;;;;;;;5042828;28;20380;-86
2021/01/09 11:25:34;;;;;;;;;;;;;;;;;;5072531;28;20438;-86
2021/01/09 11:33:33;;;;;;;;;;;;;;;;;;5072882;28;20378;-85
2021/01/09 11:36:03;;;;;;;;;;;;;;;;;;5074168;28;20763;-84
2021/01/09 11:38:29;;;;;;;;;;;;;;;;;;5065978;28;20444;-84
2021/01/09 11:40:56;;;;;;;;;;;;;;;;;;5060947;28;20384;-84
2021/01/09 11:43:22;;;;;;;;;;;;;;;;;;5060377;28;20380;-84
2021/01/09 11:45:50;;;;;;;;;;;;;;;;;;5060533;28;21651;-84
2021/01/09 11:51:00;;;;;;;;;;;;;;;;;;5023879;28;20380;-85
2021/01/09 11:53:27;;;;;;;;;;;;;;;;;;5017447;28;20781;-85
2021/01/09 11:55:53;;;;;;;;;;;;;;;;;;5006731;28;20389;-84
2021/01/09 12:03:57;;;;;;;;;;;;;;;;;;4977968;28;20398;-84
2021/01/09 12:09:04;;;;;;;;;;;;;;;;;;4939350;29;20406;-86
2021/01/09 12:11:31;;;;;;;;;;;;;;;;;;4938446;29;20408;-85
2021/01/09 12:13:58;;;;;;;;;;;;;;;;;;4938573;29;20415;-84
2021/01/09 12:16:24;;;;;;;;;;;;;;;;;;4938389;29;20768;-85
2021/01/09 12:18:50;;;;;;;;;;;;;;;;;;4941835;29;20393;-85
2021/01/09 12:21:17;;;;;;;;;;;;;;;;;;4945646;29;20405;-85
2021/01/09 12:23:43;;;;;;;;;;;;;;;;;;4959009;29;20425;-85
2021/01/09 12:26:10;;;;;;;;;;;;;;;;;;4942798;29;20426;-86
2021/01/09 12:28:36;;;;;;;;;;;;;;;;;;4979674;28;20389;-85
2021/01/09 12:31:02;;;;;;;;;;;;;;;;;;4995659;28;20448;-86
2021/01/09 12:33:29;;;;;;;;;;;;;;;;;;4994919;28;20412;-85
2021/01/09 12:35:55;;;;;;;;;;;;;;;;;;4995106;28;20388;-85
2021/01/09 12:38:22;;;;;;;;;;;;;;;;;;4989122;28;20400;-85
2021/01/09 12:40:48;;;;;;;;;;;;;;;;;;5022954;28;20429;-85
2021/01/09 12:43:14;;;;;;;;;;;;;;;;;;5027641;28;20390;-84
2021/01/09 12:45:41;;;;;;;;;;;;;;;;;;5040172;28;20430;-85
2021/01/09 12:48:07;;;;;;;;;;;;;;;;;;5066752;28;20398;-84
2021/01/09 12:50:33;;;;;;;;;;;;;;;;;;5076584;28;20384;-84
2021/01/09 12:53:00;;;;;;;;;;;;;;;;;;5062675;28;20380;-84
2021/01/09 12:55:26;;;;;;;;;;;;;;;;;;5060806;28;20419;-82
2021/01/09 12:57:53;;;;;;;;;;;;;;;;;;5062255;28;20392;-83
2021/01/09 13:00:20;;;;;;;;;;;;;;;;;;5062154;28;20522;-83
2021/01/09 13:02:47;;;;;;;;;;;;;;;;;;5060920;28;20368;-82
2021/01/09 13:05:13;;;;;;;;;;;;;;;;;;5062399;28;20416;-81
2021/01/09 13:07:39;;;;;;;;;;;;;;;;;;5062578;28;20447;-81
2021/01/09 13:10:07;;;;;;;;;;;;;;;;;;5061812;28;20395;-82
2021/01/09 13:12:33;;;;;;;;;;;;;;;;;;5064042;28;20395;-82
2021/01/09 13:15:00;;;;;;;;;;;;;;;;;;5064551;28;20408;-83
2021/01/09 13:17:26;;;;;;;;;;;;;;;;;;5064118;28;20376;-81
2021/01/09 13:19:53;;;;;;;;;;;;;;;;;;5072388;28;20376;-83
2021/01/09 13:22:19;;;;;;;;;;;;;;;;;;5062157;28;20388;-82
2021/01/09 13:24:46;;;;;;;;;;;;;;;;;;5065088;28;20404;-82
2021/01/09 13:27:12;;;;;;;;;;;;;;;;;;5060554;28;20457;-82
2021/01/09 13:29:39;;;;;;;;;;;;;;;;;;5069397;28;20736;-82
2021/01/09 13:32:06;;;;;;;;;;;;;;;;;;5052869;28;20376;-82
2021/01/09 13:34:33;;;;;;;;;;;;;;;;;;5061648;28;20408;-82
2021/01/09 13:36:59;;;;;;;;;;;;;;;;;;5061261;28;20384;-82
2021/01/09 13:39:26;;;;;;;;;;;;;;;;;;5061985;28;20388;-81
2021/01/09 13:41:52;;;;;;;;;;;;;;;;;;5068698;28;20388;-82
2021/01/09 13:44:19;;;;;;;;;;;;;;;;;;5059063;28;20411;-82
2021/01/09 13:46:45;;;;;;;;;;;;;;;;;;5061245;28;20469;-81
2021/01/09 13:49:12;;;;;;;;;;;;;;;;;;5068382;28;20392;-81
2021/01/09 13:51:38;;;;;;;;;;;;;;;;;;5061489;28;20392;-81
2021/01/09 13:54:04;;;;;;;;;;;;;;;;;;5065259;28;20408;-81
2021/01/09 13:56:31;;;;;;;;;;;;;;;;;;5068128;28;20386;-81
2021/01/09 13:58:57;;;;;;;;;;;;;;;;;;5053327;28;20395;-81
2021/01/09 14:01:23;;;;;;;;;;;;;;;;;;5050177;28;20398;-83
2021/01/09 14:03:50;;;;;;;;;;;;;;;;;;5062008;28;20927;-82
2021/01/09 14:06:16;;;;;;;;;;;;;;;;;;5062476;28;20412;-85
2021/01/09 14:08:43;;;;;;;;;;;;;;;;;;5067986;28;20392;-83
2021/01/09 14:11:09;;;;;;;;;;;;;;;;;;5071296;28;20886;-83
2021/01/09 14:13:35;;;;;;;;;;;;;;;;;;5070356;28;20403;-85
2021/01/09 14:16:02;;;;;;;;;;;;;;;;;;5061442;28;20400;-84
2021/01/09 14:18:28;;;;;;;;;;;;;;;;;;5058575;28;20388;-82
2021/01/09 14:20:56;;;;;;;;;;;;;;;;;;5060650;28;20392;-82
2021/01/09 14:23:22;;;;;;;;;;;;;;;;;;5063313;28;20384;-83
2021/01/09 14:25:49;;;;;;;;;;;;;;;;;;5070479;28;20446;-83
2021/01/09 14:55:52;;;;;;;;;;;;;;;;;;4972033;29;20424;-82
2021/01/09 14:58:21;;;;;;;;;;;;;;;;;;4959884;28;20496;-82
2021/01/09 15:00:48;;;;;;;;;;;;;;;;;;4954074;29;20417;-81
2021/01/09 15:06:10;;;;;;;;;;;;;;;;;;4952747;29;20413;-82
2021/01/09 15:08:36;;;;;;;;;;;;;;;;;;4986050;28;20423;-82
2021/01/09 15:14:03;;;;;;;;;;;;;;;;;;4982394;28;20476;-82
2021/01/09 15:16:49;;;;;;;;;;;;;;;;;;4977692;28;20481;-82
2021/01/09 15:22:01;;;;;;;;;;;;;;;;;;4977664;28;20425;-82
2021/01/09 15:29:50;;;;;;;;;;;;;;;;;;5033539;28;20387;-82
2021/01/09 15:32:21;;;;;;;;;;;;;;;;;;5036908;28;20394;-83
2021/01/09 15:59:44;;;;;;;;;;;;;;;;;;4971376;28;20397;-83
2021/01/09 16:02:11;;;;;;;;;;;;;;;;;;4971581;28;20551;-83
2021/01/09 16:04:37;;;;;;;;;;;;;;;;;;4978489;28;20445;-83
2021/01/09 16:07:04;;;;;;;;;;;;;;;;;;4976738;28;20421;-84
2021/01/09 16:09:30;;;;;;;;;;;;;;;;;;4996643;28;20417;-82
2021/01/09 16:11:57;;;;;;;;;;;;;;;;;;4997901;28;20577;-83
2021/01/09 16:14:25;;;;;;;;;;;;;;;;;;4990689;28;20836;-82
2021/01/09 16:16:52;;;;;;;;;;;;;;;;;;4996144;28;20380;-83
2021/01/09 16:19:18;;;;;;;;;;;;;;;;;;4997799;28;20403;-82
2021/01/09 16:21:44;;;;;;;;;;;;;;;;;;5009495;28;20397;-82
2021/01/09 16:24:11;;;;;;;;;;;;;;;;;;5020664;28;20415;-83
2021/01/09 16:26:37;;;;;;;;;;;;;;;;;;5021308;28;20912;-84
2021/01/09 16:29:04;;;;;;;;;;;;;;;;;;5065177;28;20390;-83
2021/01/09 16:31:30;;;;;;;;;;;;;;;;;;5064868;28;20799;-85
2021/01/09 16:33:56;;;;;;;;;;;;;;;;;;5057457;28;20415;-83
2021/01/09 16:36:23;;;;;;;;;;;;;;;;;;5065750;28;20384;-83
2021/01/09 16:38:49;;;;;;;;;;;;;;;;;;5064142;28;20466;-83
2021/01/09 16:41:16;;;;;;;;;;;;;;;;;;5064038;28;20384;-83
2021/01/09 16:43:42;;;;;;;;;;;;;;;;;;5066806;28;20411;-82
2021/01/09 16:46:08;;;;;;;;;;;;;;;;;;5064483;28;20396;-82
2021/01/09 16:48:35;;;;;;;;;;;;;;;;;;5061812;28;20783;-83
2021/01/09 16:51:01;;;;;;;;;;;;;;;;;;5059136;28;20388;-83
2021/01/09 16:53:28;;;;;;;;;;;;;;;;;;5069213;28;20390;-83
2021/01/09 16:55:54;;;;;;;;;;;;;;;;;;5075256;28;20384;-83
2021/01/09 16:58:20;;;;;;;;;;;;;;;;;;5074592;28;20384;-82
2021/01/09 17:00:47;;;;;;;;;;;;;;;;;;5069686;28;20411;-82
2021/01/09 17:03:13;;;;;;;;;;;;;;;;;;5067327;28;20388;-82
2021/01/09 17:05:39;;;;;;;;;;;;;;;;;;5077208;28;20400;-83
2021/01/09 17:08:06;;;;;;;;;;;;;;;;;;5063877;28;20388;-83
2021/01/09 17:10:32;;;;;;;;;;;;;;;;;;5065005;28;20392;-84
2021/01/09 17:12:59;;;;;;;;;;;;;;;;;;5064899;28;20442;-82
2021/01/09 17:15:25;;;;;;;;;;;;;;;;;;5064666;28;20404;-82
2021/01/09 17:17:51;;;;;;;;;;;;;;;;;;5065662;28;20437;-82
2021/01/09 17:20:18;;;;;;;;;;;;;;;;;;5066207;28;20380;-82
2021/01/09 17:22:45;;;;;;;;;;;;;;;;;;5065604;28;20424;-82
2021/01/09 17:25:11;;;;;;;;;;;;;;;;;;5066285;28;20447;-83
2021/01/09 17:27:38;;;;;;;;;;;;;;;;;;5063675;28;20388;-82
2021/01/09 17:30:07;;;;;;;;;;;;;;;;;;5072414;28;20378;-81
2021/01/09 17:32:33;;;;;;;;;;;;;;;;;;5070712;28;20376;-84
2021/01/09 17:35:00;;;;;;;;;;;;;;;;;;5075435;28;20424;-81
2021/01/09 17:37:27;;;;;;;;;;;;;;;;;;5081180;28;20402;-83
2021/01/09 17:39:53;;;;;;;;;;;;;;;;;;5078796;28;20399;-83
2021/01/09 17:42:20;;;;;;;;;;;;;;;;;;5079888;28;20670;-81
2021/01/09 17:44:46;;;;;;;;;;;;;;;;;;5088501;28;20394;-82
2021/01/09 17:47:12;;;;;;;;;;;;;;;;;;5063209;28;20429;-82
2021/01/09 17:49:39;;;;;;;;;;;;;;;;;;5062129;28;20380;-82
2021/01/09 17:52:05;;;;;;;;;;;;;;;;;;5077584;28;20385;-82
2021/01/09 17:54:32;;;;;;;;;;;;;;;;;;5069703;28;20457;-82
2021/01/09 17:56:58;;;;;;;;;;;;;;;;;;5079993;28;20403;-83
2021/01/09 17:59:25;;;;;;;;;;;;;;;;;;5068325;28;20391;-83
2021/01/09 18:01:51;;;;;;;;;;;;;;;;;;5082029;28;20405;-82
2021/01/09 18:04:17;;;;;;;;;;;;;;;;;;5062581;28;20412;-82
2021/01/09 18:06:44;;;;;;;;;;;;;;;;;;5062122;28;20400;-82
2021/01/09 18:09:11;;;;;;;;;;;;;;;;;;5061490;28;20394;-82
2021/01/09 18:11:37;;;;;;;;;;;;;;;;;;5057474;28;20509;-82
2021/01/09 18:14:03;;;;;;;;;;;;;;;;;;5066618;28;20415;-82
2021/01/09 18:16:30;;;;;;;;;;;;;;;;;;5060974;28;20384;-82
2021/01/09 18:18:56;;;;;;;;;;;;;;;;;;5062537;28;20399;-82
2021/01/09 18:21:23;;;;;;;;;;;;;;;;;;5059611;28;20399;-85
2021/01/09 18:23:49;;;;;;;;;;;;;;;;;;5061855;28;20946;-83